createdAt,value
2023-05-20T00:02:00.117Z,20.44
2023-05-20T00:04:28.135Z,20.44
2023-05-20T00:06:56.224Z,20.43
2023-05-20T00:09:25.561Z,20.42
2023-05-20T00:11:53.689Z,20.38
2023-05-20T00:14:21.702Z,20.37
2023-05-20T00:16:49.722Z,20.36
2023-05-20T00:19:17.771Z,20.34
2023-05-20T00:21:45.725Z,20.34
2023-05-20T00:24:13.724Z,20.33
2023-05-20T00:26:43.157Z,20.31
2023-05-20T00:29:11.163Z,20.29
2023-05-20T00:31:39.246Z,20.28
2023-05-20T00:34:07.282Z,20.29
2023-05-20T00:36:36.019Z,20.26
2023-05-20T00:39:04.011Z,20.25
2023-05-20T00:41:32.051Z,20.22
2023-05-20T00:44:01.479Z,20.22
2023-05-20T00:46:29.844Z,20.22
2023-05-20T00:48:58.108Z,20.22
2023-05-20T00:51:26.228Z,20.18
2023-05-20T00:53:55.277Z,20.17
2023-05-20T00:56:23.420Z,20.16
2023-05-20T00:58:51.523Z,20.15
2023-05-20T01:01:21.003Z,20.13
2023-05-20T01:03:49.818Z,20.12
2023-05-20T01:06:17.786Z,20.11
2023-05-20T01:08:45.906Z,20.09
2023-05-20T01:11:19.554Z,20.10
2023-05-20T01:13:49.646Z,20.09
2023-05-20T01:16:20.253Z,20.07
2023-05-20T01:18:49.518Z,20.06
2023-05-20T01:21:17.486Z,20.06
2023-05-20T01:23:46.867Z,20.04
2023-05-20T01:26:19.053Z,20.03
2023-05-20T01:28:47.032Z,20.02
2023-05-20T01:31:17.244Z,20.01
2023-05-20T01:33:45.275Z,19.99
2023-05-20T01:36:13.222Z,20.00
2023-05-20T01:38:41.607Z,19.98
2023-05-20T01:41:10.986Z,19.96
2023-05-20T01:43:40.021Z,19.96
2023-05-20T01:46:08.281Z,19.95
2023-05-20T01:48:36.321Z,19.94
2023-05-20T01:51:04.359Z,19.93
2023-05-20T01:53:32.474Z,19.92
2023-05-20T01:56:00.476Z,19.92
2023-05-20T01:58:30.020Z,19.91
2023-05-20T02:00:58.169Z,19.91
2023-05-20T02:03:26.201Z,19.88
2023-05-20T02:05:54.295Z,19.89
2023-05-20T02:08:22.299Z,19.87
2023-05-20T02:10:50.359Z,19.86
2023-05-20T02:13:18.440Z,19.85
2023-05-20T02:15:47.811Z,19.84
2023-05-20T02:18:18.915Z,19.84
2023-05-20T02:20:46.945Z,19.83
2023-05-20T02:23:14.890Z,19.82
2023-05-20T02:25:42.931Z,19.81
2023-05-20T02:28:11.328Z,19.80
2023-05-20T02:30:39.334Z,19.79
2023-05-20T02:33:09.870Z,19.79
2023-05-20T02:35:38.196Z,19.77
2023-05-20T02:38:06.207Z,19.76
2023-05-20T02:40:34.286Z,19.78
2023-05-20T02:43:02.306Z,19.76
2023-05-20T02:45:30.270Z,19.76
2023-05-20T02:47:58.315Z,19.75
2023-05-20T02:50:27.738Z,19.74
2023-05-20T02:52:55.949Z,19.74
2023-05-20T02:55:24.535Z,19.72
2023-05-20T02:57:52.514Z,19.71
2023-05-20T03:00:20.466Z,19.71
2023-05-20T03:02:48.478Z,19.71
2023-05-20T03:05:16.535Z,19.70
2023-05-20T03:07:46.438Z,19.68
2023-05-20T03:10:14.519Z,19.67
2023-05-20T03:12:42.502Z,19.64
2023-05-20T03:15:11.432Z,19.64
2023-05-20T03:17:39.503Z,19.65
2023-05-20T03:20:09.138Z,19.63
2023-05-20T03:22:37.143Z,19.64
2023-05-20T03:25:07.433Z,19.63
2023-05-20T03:27:36.978Z,19.63
2023-05-20T03:30:05.696Z,19.62
2023-05-20T03:32:33.719Z,19.60
2023-05-20T03:35:01.699Z,19.60
2023-05-20T03:37:29.704Z,19.59
2023-05-20T03:39:57.879Z,19.58
2023-05-20T03:42:27.334Z,19.58
2023-05-20T03:44:55.314Z,19.58
2023-05-20T03:47:23.323Z,19.58
2023-05-20T03:49:51.415Z,19.59
2023-05-20T03:52:19.490Z,19.58
2023-05-20T03:54:47.475Z,19.57
2023-05-20T03:57:15.463Z,19.56
2023-05-20T03:59:44.837Z,19.55
2023-05-20T04:02:13.011Z,19.56
2023-05-20T04:04:43.093Z,19.56
2023-05-20T04:07:11.099Z,19.55
2023-05-20T04:09:39.351Z,19.56
2023-05-20T04:12:07.555Z,19.55
2023-05-20T04:14:35.905Z,19.55
2023-05-20T04:17:06.090Z,19.55
2023-05-20T04:19:34.305Z,19.55
2023-05-20T04:22:02.358Z,19.56
2023-05-20T04:24:30.531Z,19.55
2023-05-20T04:26:58.449Z,19.57
2023-05-20T04:29:26.598Z,19.55
2023-05-20T04:31:54.802Z,19.56
2023-05-20T04:34:27.088Z,19.57
2023-05-20T04:36:55.195Z,19.55
2023-05-20T04:39:23.193Z,19.57
2023-05-20T04:41:51.473Z,19.57
2023-05-20T04:44:20.034Z,19.57
2023-05-20T04:46:47.953Z,19.57
2023-05-20T04:49:16.044Z,19.58
2023-05-20T04:51:46.912Z,19.58
2023-05-20T04:54:15.005Z,19.59
2023-05-20T04:56:42.944Z,19.59
2023-05-20T04:59:10.936Z,19.58
2023-05-20T05:01:38.924Z,19.59
2023-05-20T05:04:07.003Z,19.59
2023-05-20T05:06:34.970Z,19.59
2023-05-20T05:09:04.854Z,19.60
2023-05-20T05:11:32.829Z,19.60
2023-05-20T05:14:00.818Z,19.61
2023-05-20T05:16:29.101Z,19.62
2023-05-20T05:18:57.214Z,19.64
2023-05-20T05:21:25.173Z,19.64
2023-05-20T05:23:53.144Z,19.65
2023-05-20T05:26:22.540Z,19.67
2023-05-20T05:28:50.724Z,19.65
2023-05-20T05:31:19.095Z,19.66
2023-05-20T05:33:47.048Z,19.68
2023-05-20T05:36:15.017Z,19.65
2023-05-20T05:38:42.994Z,19.66
2023-05-20T05:41:10.966Z,19.68
2023-05-20T05:43:40.509Z,19.68
2023-05-20T05:46:09.719Z,19.68
2023-05-20T05:48:37.739Z,19.67
2023-05-20T05:51:06.149Z,19.70
2023-05-20T05:53:34.175Z,19.71
2023-05-20T05:56:02.297Z,19.72
2023-05-20T05:58:30.258Z,19.71
2023-05-20T06:00:59.790Z,19.72
2023-05-20T06:03:27.886Z,19.72
2023-05-20T06:05:55.912Z,19.73
2023-05-20T06:08:24.012Z,19.76
2023-05-20T06:10:52.142Z,19.76
2023-05-20T06:13:20.233Z,19.77
2023-05-20T06:15:48.166Z,19.75
2023-05-20T06:18:17.514Z,19.78
2023-05-20T06:20:45.519Z,19.77
2023-05-20T06:23:13.577Z,19.78
2023-05-20T06:25:42.157Z,19.80
2023-05-20T06:28:10.570Z,19.80
2023-05-20T06:30:38.623Z,19.81
2023-05-20T06:33:06.653Z,19.81
2023-05-20T06:35:36.442Z,19.80
2023-05-20T06:38:04.620Z,19.81
2023-05-20T06:40:32.645Z,19.82
2023-05-20T06:43:00.600Z,19.82
2023-05-20T06:45:28.584Z,19.82
2023-05-20T06:47:56.631Z,19.84
2023-05-20T06:50:25.095Z,19.84
2023-05-20T06:52:54.443Z,19.85
2023-05-20T06:55:22.462Z,19.87
2023-05-20T06:57:50.416Z,19.86
2023-05-20T07:00:19.026Z,19.84
2023-05-20T07:02:47.243Z,19.85
2023-05-20T07:05:15.513Z,19.90
2023-05-20T07:07:43.456Z,19.90
2023-05-20T07:10:12.928Z,19.90
2023-05-20T07:12:40.955Z,19.87
2023-05-20T07:15:09.944Z,19.91
2023-05-20T07:17:38.084Z,19.90
2023-05-20T07:20:07.077Z,19.90
2023-05-20T07:22:35.085Z,19.93
2023-05-20T07:25:03.340Z,19.93
2023-05-20T07:27:32.704Z,19.93
2023-05-20T07:30:00.695Z,19.93
2023-05-20T07:32:28.826Z,19.95
2023-05-20T07:34:56.943Z,19.96
2023-05-20T07:37:25.060Z,19.95
2023-05-20T07:39:53.031Z,19.98
2023-05-20T07:42:21.137Z,19.99
2023-05-20T07:44:50.484Z,20.00
2023-05-20T07:47:18.861Z,20.02
2023-05-20T07:49:47.362Z,20.03
2023-05-20T07:52:15.325Z,20.04
2023-05-20T07:54:43.262Z,20.06
2023-05-20T07:57:11.261Z,20.06
2023-05-20T07:59:39.279Z,20.05
2023-05-20T08:02:09.592Z,20.07
2023-05-20T08:04:38.214Z,20.07
2023-05-20T08:07:06.618Z,20.06
2023-05-20T08:09:35.600Z,20.08
2023-05-20T08:12:03.626Z,20.07
2023-05-20T08:14:31.625Z,20.09
2023-05-20T08:16:59.900Z,20.08
2023-05-20T08:19:29.492Z,20.11
2023-05-20T08:21:57.556Z,20.12
2023-05-20T08:24:25.630Z,20.13
2023-05-20T08:26:53.683Z,20.13
2023-05-20T08:29:21.682Z,20.13
2023-05-20T08:31:49.685Z,20.15
2023-05-20T08:34:17.665Z,20.16
2023-05-20T08:36:47.151Z,20.18
2023-05-20T08:39:15.247Z,20.21
2023-05-20T08:41:43.304Z,20.22
2023-05-20T08:44:11.591Z,20.22
2023-05-20T08:46:39.655Z,20.23
2023-05-20T08:49:07.723Z,20.25
2023-05-20T08:51:35.779Z,20.25
2023-05-20T08:54:05.392Z,20.27
2023-05-20T08:56:33.927Z,20.29
2023-05-20T08:59:01.950Z,20.28
2023-05-20T09:01:30.001Z,20.31
2023-05-20T09:03:58.194Z,20.36
2023-05-20T09:06:26.269Z,20.34
2023-05-20T09:08:54.234Z,20.35
2023-05-20T09:11:23.895Z,20.37
2023-05-20T09:13:51.896Z,20.39
2023-05-20T09:16:19.917Z,20.40
2023-05-20T09:18:48.028Z,20.42
2023-05-20T09:21:16.392Z,20.45
2023-05-20T09:23:49.010Z,20.48
2023-05-20T09:26:19.564Z,20.49
2023-05-20T09:28:49.106Z,20.51
2023-05-20T09:31:17.268Z,20.51
2023-05-20T09:33:45.292Z,20.52
2023-05-20T09:36:14.652Z,20.57
2023-05-20T09:38:44.459Z,20.63
2023-05-20T09:41:13.394Z,20.67
2023-05-20T09:43:41.699Z,20.68
2023-05-20T09:46:11.209Z,20.71
2023-05-20T09:48:39.894Z,20.73
2023-05-20T09:51:08.329Z,20.77
2023-05-20T09:53:36.404Z,20.78
2023-05-20T09:56:04.568Z,20.81
2023-05-20T09:58:32.553Z,20.83
2023-05-20T10:01:01.377Z,20.84
2023-05-20T10:03:30.912Z,20.87
2023-05-20T10:06:08.357Z,20.91
2023-05-20T10:08:51.584Z,20.92
2023-05-20T10:11:25.885Z,20.92
2023-05-20T10:14:06.835Z,20.95
2023-05-20T10:16:39.388Z,20.98
2023-05-20T10:19:12.168Z,21.04
2023-05-20T10:21:40.192Z,21.07
2023-05-20T10:24:08.714Z,21.07
2023-05-20T10:26:37.732Z,21.09
2023-05-20T10:29:16.482Z,21.12
2023-05-20T10:31:50.032Z,21.15
2023-05-20T10:34:20.763Z,21.17
2023-05-20T10:36:49.364Z,21.19
2023-05-20T10:39:18.099Z,21.18
2023-05-20T10:41:46.161Z,21.20
2023-05-20T10:44:14.627Z,21.20
2023-05-20T10:49:24.040Z,21.25
2023-05-20T10:51:55.617Z,21.31
2023-05-20T10:54:24.116Z,21.38
2023-05-20T10:56:53.365Z,21.40
2023-05-20T10:59:21.881Z,21.39
2023-05-20T11:01:49.988Z,21.41
2023-05-20T11:04:18.086Z,21.43
2023-05-20T11:06:53.669Z,21.45
2023-05-20T11:09:21.672Z,21.47
2023-05-20T11:11:49.721Z,21.50
2023-05-20T11:14:20.098Z,21.50
2023-05-20T11:16:48.753Z,21.52
2023-05-20T11:19:17.344Z,21.56
2023-05-20T11:21:45.829Z,21.59
2023-05-20T11:24:15.248Z,21.63
2023-05-20T11:26:43.240Z,21.65
2023-05-20T11:29:11.237Z,21.67
2023-05-20T11:31:39.788Z,21.70
2023-05-20T11:34:07.815Z,21.72
2023-05-20T11:36:35.782Z,21.75
2023-05-20T11:39:03.789Z,21.79
2023-05-20T11:41:33.133Z,21.83
2023-05-20T11:44:01.288Z,21.87
2023-05-20T11:46:29.492Z,21.90
2023-05-20T11:48:57.653Z,21.87
2023-05-20T11:51:27.142Z,21.86
2023-05-20T11:53:55.425Z,21.84
2023-05-20T11:56:23.429Z,21.84
2023-05-20T11:58:52.800Z,21.87
2023-05-20T12:01:22.865Z,21.86
2023-05-20T12:03:51.437Z,21.80
2023-05-20T12:06:19.565Z,21.77
2023-05-20T12:08:47.585Z,21.80
2023-05-20T12:11:15.605Z,21.86
2023-05-20T12:13:43.590Z,21.89
2023-05-20T12:16:12.969Z,21.89
2023-05-20T12:18:41.011Z,21.88
2023-05-20T12:21:09.054Z,21.91
2023-05-20T12:23:37.130Z,21.96
2023-05-20T12:26:05.749Z,21.98
2023-05-20T12:28:33.751Z,22.02
2023-05-20T12:31:03.043Z,22.04
2023-05-20T12:33:32.431Z,22.08
2023-05-20T12:36:00.567Z,22.08
2023-05-20T12:38:28.593Z,22.07
2023-05-20T12:40:56.713Z,22.07
2023-05-20T12:43:24.749Z,22.09
2023-05-20T12:45:53.286Z,22.09
2023-05-20T12:48:21.316Z,22.09
2023-05-20T12:50:51.112Z,22.10
2023-05-20T12:53:19.065Z,22.11
2023-05-20T12:55:47.043Z,22.15
2023-05-20T12:58:15.318Z,22.17
2023-05-20T13:00:43.291Z,22.20
2023-05-20T13:03:11.683Z,22.18
2023-05-20T13:05:39.830Z,22.16
2023-05-20T13:08:10.926Z,22.14
2023-05-20T13:10:39.047Z,22.14
2023-05-20T13:13:07.061Z,22.16
2023-05-20T13:15:35.052Z,22.18
2023-05-20T13:18:03.677Z,22.22
2023-05-20T13:20:31.679Z,22.23
2023-05-20T13:22:59.662Z,22.23
2023-05-20T13:25:29.245Z,22.21
2023-05-20T13:27:57.698Z,22.20
2023-05-20T13:30:25.831Z,22.21
2023-05-20T13:32:53.850Z,22.18
2023-05-20T13:35:22.011Z,22.14
2023-05-20T13:37:50.000Z,22.14
2023-05-20T13:40:18.037Z,22.12
2023-05-20T13:42:47.648Z,22.15
2023-05-20T13:45:15.649Z,22.16
2023-05-20T13:47:43.708Z,22.17
2023-05-20T13:50:12.393Z,22.16
2023-05-20T13:52:40.362Z,22.16
2023-05-20T13:55:09.454Z,22.12
2023-05-20T13:57:37.500Z,22.10
2023-05-20T14:00:08.472Z,22.10
2023-05-20T14:02:36.544Z,22.11
2023-05-20T14:05:04.784Z,22.12
2023-05-20T14:07:32.804Z,22.14
2023-05-20T14:10:00.932Z,22.15
2023-05-20T14:12:28.982Z,22.20
2023-05-20T14:14:57.774Z,22.26
2023-05-20T14:17:27.237Z,22.30
2023-05-20T14:19:55.748Z,22.30
2023-05-20T14:22:23.773Z,22.27
2023-05-20T14:24:51.858Z,22.24
2023-05-20T14:27:19.882Z,22.21
2023-05-20T14:29:47.881Z,22.22
2023-05-20T14:32:16.021Z,22.23
2023-05-20T14:34:45.561Z,22.23
2023-05-20T14:37:13.596Z,22.25
2023-05-20T14:39:41.587Z,22.28
2023-05-20T14:42:09.601Z,22.26
2023-05-20T14:44:37.670Z,22.25
2023-05-20T14:47:06.024Z,22.26
2023-05-20T14:49:34.118Z,22.30
2023-05-20T14:52:03.515Z,22.33
2023-05-20T14:54:31.520Z,22.33
2023-05-20T14:56:59.544Z,22.37
2023-05-20T14:59:27.622Z,22.34
2023-05-20T15:01:55.799Z,22.29
2023-05-20T15:04:23.865Z,22.26
2023-05-20T15:06:52.391Z,22.23
2023-05-20T15:09:21.799Z,22.20
2023-05-20T15:11:49.932Z,22.20
2023-05-20T15:14:17.954Z,22.19
2023-05-20T15:16:46.012Z,22.20
2023-05-20T15:19:14.205Z,22.26
2023-05-20T15:21:42.359Z,22.33
2023-05-20T15:24:10.438Z,22.36
2023-05-20T15:26:40.150Z,22.33
2023-05-20T15:29:08.425Z,22.30
2023-05-20T15:31:36.552Z,22.27
2023-05-20T15:34:04.631Z,22.25
2023-05-20T15:36:32.736Z,22.21
2023-05-20T15:39:00.751Z,22.16
2023-05-20T15:41:28.922Z,22.10
2023-05-20T15:43:58.371Z,22.08
2023-05-20T15:46:26.702Z,22.07
2023-05-20T15:48:56.356Z,22.08
2023-05-20T15:51:24.514Z,22.09
2023-05-20T15:53:52.524Z,22.09
2023-05-20T15:56:21.786Z,22.05
2023-05-20T15:58:49.853Z,22.02
2023-05-20T16:01:19.266Z,22.00
2023-05-20T16:03:47.356Z,21.99
2023-05-20T16:06:15.674Z,21.95
2023-05-20T16:08:43.703Z,21.92
2023-05-20T16:11:11.753Z,21.90
2023-05-20T16:13:39.769Z,21.86
2023-05-20T16:16:08.257Z,21.84
2023-05-20T16:18:37.709Z,21.83
2023-05-20T16:21:07.911Z,21.80
2023-05-20T16:23:36.114Z,21.79
2023-05-20T16:26:04.127Z,21.77
2023-05-20T16:28:32.188Z,21.74
2023-05-20T16:31:00.206Z,21.72
2023-05-20T16:33:28.204Z,21.71
2023-05-20T16:35:57.671Z,21.69
2023-05-20T16:38:25.652Z,21.69
2023-05-20T16:40:53.702Z,21.68
2023-05-20T16:43:21.710Z,21.66
2023-05-20T16:45:49.784Z,21.63
2023-05-20T16:48:17.848Z,21.62
2023-05-20T16:50:46.670Z,21.61
2023-05-20T16:53:16.643Z,21.61
2023-05-20T16:55:44.756Z,21.65
2023-05-20T16:58:12.794Z,21.67
2023-05-20T17:00:41.142Z,21.64
2023-05-20T17:03:09.269Z,21.63
2023-05-20T17:05:37.326Z,21.61
2023-05-20T17:08:05.725Z,21.60
2023-05-20T17:10:35.318Z,21.57
2023-05-20T17:13:04.105Z,21.54
2023-05-20T17:15:32.869Z,21.53
2023-05-20T17:18:00.886Z,21.52
2023-05-20T17:20:29.206Z,21.49
2023-05-20T17:22:57.189Z,21.48
2023-05-20T17:25:25.206Z,21.46
2023-05-20T17:27:54.588Z,21.44
2023-05-20T17:30:22.618Z,21.42
2023-05-20T17:32:53.756Z,21.41
2023-05-20T17:35:25.592Z,21.40
2023-05-20T17:37:53.846Z,21.38
2023-05-20T17:40:21.837Z,21.35
2023-05-20T17:42:50.022Z,21.33
2023-05-20T17:45:19.447Z,21.32
2023-05-20T17:47:47.586Z,21.30
2023-05-20T17:50:16.695Z,21.29
2023-05-20T17:52:44.718Z,21.29
2023-05-20T17:55:12.951Z,21.27
2023-05-20T17:57:41.023Z,21.26
2023-05-20T18:00:10.556Z,21.25
2023-05-20T18:02:40.045Z,21.22
2023-05-20T18:05:10.779Z,21.20
2023-05-20T18:07:38.914Z,21.19
2023-05-20T18:10:07.759Z,21.17
2023-05-20T18:12:35.778Z,21.15
2023-05-20T18:15:06.292Z,21.14
2023-05-20T18:17:34.402Z,21.13
2023-05-20T18:20:04.037Z,21.11
2023-05-20T18:22:32.064Z,21.09
2023-05-20T18:25:00.060Z,21.07
2023-05-20T18:27:28.218Z,21.07
2023-05-20T18:29:56.211Z,21.06
2023-05-20T18:32:27.732Z,21.05
2023-05-20T18:34:56.031Z,21.04
2023-05-20T18:37:27.387Z,21.02
2023-05-20T18:39:57.160Z,21.01
2023-05-20T18:42:25.239Z,21.00
2023-05-20T18:44:53.298Z,20.97
2023-05-20T18:47:21.443Z,20.97
2023-05-20T18:49:49.461Z,20.96
2023-05-20T18:52:17.498Z,20.95
2023-05-20T18:54:46.873Z,20.94
2023-05-20T18:57:14.969Z,20.93
2023-05-20T18:59:43.063Z,20.93
2023-05-20T19:02:11.117Z,20.92
2023-05-20T19:04:39.144Z,20.90
2023-05-20T19:07:07.342Z,20.90
2023-05-20T19:09:35.351Z,20.89
2023-05-20T19:12:04.997Z,20.86
2023-05-20T19:14:33.086Z,20.86
2023-05-20T19:17:01.236Z,20.84
2023-05-20T19:19:29.304Z,20.83
2023-05-20T19:21:57.460Z,20.82
2023-05-20T19:24:25.395Z,20.81
2023-05-20T19:26:53.409Z,20.80
2023-05-20T19:29:22.779Z,20.79
2023-05-20T19:31:51.340Z,20.79
2023-05-20T19:34:19.379Z,20.77
2023-05-20T19:36:47.371Z,20.75
2023-05-20T19:39:15.685Z,20.74
2023-05-20T19:41:43.745Z,20.73
2023-05-20T19:44:11.898Z,20.73
2023-05-20T19:46:41.731Z,20.72
2023-05-20T19:49:09.692Z,20.72
2023-05-20T19:51:37.827Z,20.70
2023-05-20T19:54:05.895Z,20.70
2023-05-20T19:56:34.030Z,20.69
2023-05-20T19:59:02.209Z,20.68
2023-05-20T20:01:30.214Z,20.67
2023-05-20T20:03:59.651Z,20.67
2023-05-20T20:06:27.766Z,20.66
2023-05-20T20:08:55.811Z,20.65
2023-05-20T20:11:23.831Z,20.65
2023-05-20T20:13:51.819Z,20.64
2023-05-20T20:16:19.889Z,20.62
2023-05-20T20:18:48.149Z,20.62
2023-05-20T20:21:18.101Z,20.60
2023-05-20T20:23:46.116Z,20.60
2023-05-20T20:26:14.722Z,20.60
2023-05-20T20:28:42.729Z,20.59
2023-05-20T20:31:10.830Z,20.58
2023-05-20T20:33:38.926Z,20.57
2023-05-20T20:36:09.119Z,20.57
2023-05-20T20:38:38.711Z,20.55
2023-05-20T20:41:09.548Z,20.55
2023-05-20T20:43:38.149Z,20.52
2023-05-20T20:46:06.440Z,20.52
2023-05-20T20:48:34.568Z,20.52
2023-05-20T20:51:02.566Z,20.51
2023-05-20T20:53:30.689Z,20.50
2023-05-20T20:56:00.269Z,20.50
2023-05-20T20:58:28.327Z,20.49
2023-05-20T21:00:56.397Z,20.48
2023-05-20T21:03:26.471Z,20.47
2023-05-20T21:05:54.738Z,20.48
2023-05-20T21:08:27.691Z,20.47
2023-05-20T21:10:59.178Z,20.45
2023-05-20T21:13:28.720Z,20.45
2023-05-20T21:15:56.755Z,20.44
2023-05-20T21:18:24.756Z,20.44
2023-05-20T21:20:53.528Z,20.43
2023-05-20T21:23:21.849Z,20.42
2023-05-20T21:25:49.926Z,20.42
2023-05-20T21:28:18.015Z,20.40
2023-05-20T21:30:47.376Z,20.40
2023-05-20T21:33:15.384Z,20.39
2023-05-20T21:35:43.415Z,20.39
2023-05-20T21:38:13.470Z,20.38
2023-05-20T21:40:41.576Z,20.38
2023-05-20T21:43:09.572Z,20.37
2023-05-20T21:45:37.693Z,20.36
2023-05-20T21:48:07.840Z,20.36
2023-05-20T21:50:35.815Z,20.36
2023-05-20T21:53:03.779Z,20.35
2023-05-20T21:55:31.750Z,20.34
2023-05-20T21:57:59.742Z,20.33
2023-05-20T22:00:27.764Z,20.32
2023-05-20T22:02:55.917Z,20.31
2023-05-20T22:05:25.341Z,20.31
2023-05-20T22:07:54.615Z,20.30
2023-05-20T22:10:23.446Z,20.30
2023-05-20T22:12:51.920Z,20.29
2023-05-20T22:15:20.121Z,20.27
2023-05-20T22:17:48.392Z,20.27
2023-05-20T22:20:16.427Z,20.26
2023-05-20T22:22:45.840Z,20.26
2023-05-20T22:25:13.805Z,20.24
2023-05-20T22:27:43.103Z,20.25
2023-05-20T22:30:12.331Z,20.24
2023-05-20T22:32:40.476Z,20.23
2023-05-20T22:35:09.428Z,20.22
2023-05-20T22:37:37.432Z,20.22
2023-05-20T22:40:11.254Z,20.21
2023-05-20T22:42:39.259Z,20.20
2023-05-20T22:45:08.215Z,20.20
2023-05-20T22:47:36.217Z,20.19
2023-05-20T22:50:04.288Z,20.18
2023-05-20T22:52:32.645Z,20.18
2023-05-20T22:55:00.628Z,20.17
2023-05-20T22:57:30.161Z,20.17
2023-05-20T22:59:58.128Z,20.16
2023-05-20T23:02:26.135Z,20.14
2023-05-20T23:04:54.154Z,20.13
2023-05-20T23:07:22.158Z,20.15
2023-05-20T23:09:50.153Z,20.13
2023-05-20T23:12:18.167Z,20.12
2023-05-20T23:14:47.590Z,20.12
2023-05-20T23:17:16.050Z,20.12
2023-05-20T23:19:44.014Z,20.12
2023-05-20T23:22:11.992Z,20.11
2023-05-20T23:24:40.054Z,20.09
2023-05-20T23:27:08.498Z,20.09
2023-05-20T23:29:36.513Z,20.10
2023-05-20T23:32:06.486Z,20.08
2023-05-20T23:34:35.179Z,20.07
2023-05-20T23:37:03.166Z,20.06
2023-05-20T23:39:31.181Z,20.06
2023-05-20T23:41:59.406Z,20.05
2023-05-20T23:44:27.364Z,20.04
2023-05-20T23:46:55.346Z,20.04
2023-05-20T23:49:27.308Z,20.03
2023-05-20T23:51:55.325Z,20.02
2023-05-20T23:54:26.427Z,20.01
2023-05-20T23:56:55.347Z,20.00
2023-05-20T23:59:23.320Z,20.00
